createdAt,value
2018-12-31T00:01:48.651Z,13.20
2018-12-31T00:04:18.003Z,14.23
2018-12-31T00:06:47.018Z,16.17
2018-12-31T00:09:15.877Z,13.47
2018-12-31T00:11:44.870Z,13.73
2018-12-31T00:14:13.720Z,12.87
2018-12-31T00:16:48.897Z,14.53
2018-12-31T00:19:17.719Z,23.37
2018-12-31T00:21:46.689Z,14.00
2018-12-31T00:24:15.612Z,21.33
2018-12-31T00:26:44.691Z,18.17
2018-12-31T00:29:13.788Z,13.90
2018-12-31T00:31:42.600Z,13.57
2018-12-31T00:34:11.499Z,13.00
2018-12-31T00:36:40.349Z,25.03
2018-12-31T00:39:10.802Z,26.97
2018-12-31T00:41:39.607Z,16.23
2018-12-31T00:44:09.035Z,12.50
2018-12-31T00:46:38.022Z,11.73
2018-12-31T00:49:06.899Z,21.00
2018-12-31T00:51:35.713Z,14.00
2018-12-31T00:54:04.508Z,21.97
2018-12-31T00:56:33.325Z,13.37
2018-12-31T00:59:02.524Z,16.33
2018-12-31T01:01:31.382Z,14.33
2018-12-31T01:04:00.351Z,29.35
2018-12-31T01:06:29.356Z,13.57
2018-12-31T01:08:58.512Z,13.70
2018-12-31T01:11:27.396Z,21.53
2018-12-31T01:13:56.368Z,40.47
2018-12-31T01:16:25.257Z,13.30
2018-12-31T01:18:54.064Z,12.30
2018-12-31T01:21:23.175Z,24.03
2018-12-31T01:23:52.112Z,14.83
2018-12-31T01:26:21.474Z,14.13
2018-12-31T01:28:50.500Z,21.62
2018-12-31T01:31:19.552Z,13.57
2018-12-31T01:33:48.392Z,12.97
2018-12-31T01:36:17.238Z,13.13
2018-12-31T01:38:46.074Z,12.57
2018-12-31T01:41:14.944Z,11.30
2018-12-31T01:43:43.869Z,14.13
2018-12-31T01:46:12.789Z,11.57
2018-12-31T01:48:41.617Z,16.13
2018-12-31T01:51:11.519Z,20.40
2018-12-31T01:53:40.546Z,12.50
2018-12-31T01:56:09.889Z,26.70
2018-12-31T01:58:38.790Z,13.37
2018-12-31T02:01:07.817Z,13.50
2018-12-31T02:03:36.701Z,11.80
2018-12-31T02:06:05.900Z,12.43
2018-12-31T02:08:34.811Z,12.93
2018-12-31T02:11:03.881Z,12.70
2018-12-31T02:13:32.751Z,14.93
2018-12-31T02:16:01.857Z,14.57
2018-12-31T02:18:30.665Z,19.67
2018-12-31T02:20:59.491Z,14.40
2018-12-31T02:23:28.317Z,21.90
2018-12-31T02:25:57.194Z,17.60
2018-12-31T02:28:26.276Z,17.83
2018-12-31T02:30:55.042Z,13.33
2018-12-31T02:33:23.976Z,13.03
2018-12-31T02:35:52.919Z,15.40
2018-12-31T02:38:21.693Z,12.23
2018-12-31T02:40:50.545Z,12.33
2018-12-31T02:43:19.374Z,13.80
2018-12-31T02:45:48.483Z,20.33
2018-12-31T02:48:17.290Z,19.80
2018-12-31T02:50:46.163Z,13.32
2018-12-31T02:53:15.264Z,12.40
2018-12-31T02:55:44.055Z,23.00
2018-12-31T02:58:12.856Z,12.30
2018-12-31T03:00:41.658Z,14.23
2018-12-31T03:03:10.511Z,13.20
2018-12-31T03:05:39.407Z,11.80
2018-12-31T03:08:08.272Z,16.00
2018-12-31T03:10:37.153Z,12.17
2018-12-31T03:13:06.139Z,13.27
2018-12-31T03:15:35.237Z,13.03
2018-12-31T03:18:04.149Z,12.03
2018-12-31T03:20:35.037Z,32.77
2018-12-31T03:23:03.790Z,13.63
2018-12-31T03:25:33.537Z,13.37
2018-12-31T03:28:02.464Z,22.53
2018-12-31T03:30:31.451Z,17.43
2018-12-31T03:33:00.328Z,30.10
2018-12-31T03:35:29.187Z,19.97
2018-12-31T03:37:58.566Z,12.07
2018-12-31T03:40:27.858Z,12.03
2018-12-31T03:42:56.928Z,13.10
2018-12-31T03:45:25.764Z,12.73
2018-12-31T03:47:54.608Z,12.13
2018-12-31T03:50:23.419Z,18.92
2018-12-31T03:52:52.412Z,24.87
2018-12-31T03:55:21.559Z,12.10
2018-12-31T03:57:50.811Z,13.73
2018-12-31T04:00:20.017Z,12.30
2018-12-31T04:02:48.997Z,13.53
2018-12-31T04:05:17.815Z,12.30
2018-12-31T04:07:52.925Z,15.73
2018-12-31T04:10:17.552Z,13.17
2018-12-31T04:12:46.550Z,27.63
2018-12-31T04:15:15.893Z,12.77
2018-12-31T04:17:45.037Z,14.20
2018-12-31T04:20:14.339Z,15.63
2018-12-31T04:22:43.254Z,15.20
2018-12-31T04:25:12.200Z,13.13
2018-12-31T04:27:41.029Z,19.20
2018-12-31T04:30:09.892Z,17.40
2018-12-31T04:32:39.054Z,17.40
2018-12-31T04:35:07.943Z,21.93
2018-12-31T04:37:36.820Z,17.73
2018-12-31T04:40:05.899Z,11.67
2018-12-31T04:42:34.780Z,13.53
2018-12-31T04:45:04.084Z,21.10
2018-12-31T04:47:32.884Z,15.93
2018-12-31T04:50:01.938Z,13.47
2018-12-31T04:52:30.781Z,14.53
2018-12-31T04:54:59.688Z,14.13
2018-12-31T04:57:28.631Z,13.93
2018-12-31T04:59:57.900Z,29.00
2018-12-31T05:02:26.808Z,16.53
2018-12-31T05:04:56.254Z,12.53
2018-12-31T05:07:25.226Z,11.20
2018-12-31T05:09:54.021Z,15.90
2018-12-31T05:12:22.997Z,13.03
2018-12-31T05:14:52.233Z,12.20
2018-12-31T05:17:21.184Z,13.20
2018-12-31T05:19:50.311Z,15.00
2018-12-31T05:22:19.882Z,20.83
2018-12-31T05:24:49.055Z,26.13
2018-12-31T05:27:17.881Z,16.43
2018-12-31T05:29:46.830Z,13.53
2018-12-31T05:32:15.726Z,28.93
2018-12-31T05:34:45.616Z,17.77
2018-12-31T05:37:14.485Z,19.90
2018-12-31T05:39:43.762Z,22.57
2018-12-31T05:42:13.896Z,25.70
2018-12-31T05:44:42.795Z,14.63
2018-12-31T05:47:12.608Z,18.57
2018-12-31T05:49:41.505Z,18.23
2018-12-31T05:52:10.259Z,14.07
2018-12-31T05:54:40.176Z,23.70
2018-12-31T05:57:08.994Z,21.00
2018-12-31T05:59:37.754Z,23.73
2018-12-31T06:02:06.554Z,14.77
2018-12-31T06:04:35.605Z,17.20
2018-12-31T06:07:04.483Z,25.43
2018-12-31T06:09:33.388Z,24.17
2018-12-31T06:12:02.443Z,26.97
2018-12-31T06:14:31.527Z,16.90
2018-12-31T06:17:00.578Z,20.90
2018-12-31T06:19:29.420Z,22.23
2018-12-31T06:21:58.319Z,19.60
2018-12-31T06:24:27.123Z,15.57
2018-12-31T06:26:55.894Z,18.60
2018-12-31T06:29:26.110Z,39.07
2018-12-31T06:31:54.976Z,39.50
2018-12-31T06:34:24.095Z,21.80
2018-12-31T06:36:52.987Z,27.80
2018-12-31T06:39:21.850Z,24.90
2018-12-31T06:41:50.867Z,26.73
2018-12-31T06:44:19.829Z,30.07
2018-12-31T06:46:49.124Z,21.50
2018-12-31T06:49:17.951Z,32.43
2018-12-31T06:51:47.824Z,19.00
2018-12-31T06:54:16.638Z,37.27
2018-12-31T06:56:45.414Z,22.50
2018-12-31T06:59:14.546Z,23.03
2018-12-31T07:01:43.686Z,26.90
2018-12-31T07:04:12.780Z,24.87
2018-12-31T07:06:42.131Z,21.17
2018-12-31T07:09:11.158Z,19.13
2018-12-31T07:11:39.967Z,27.77
2018-12-31T07:14:09.483Z,23.87
2018-12-31T07:16:38.325Z,25.93
2018-12-31T07:19:07.332Z,27.93
2018-12-31T07:21:36.108Z,21.07
2018-12-31T07:24:04.975Z,28.80
2018-12-31T07:26:33.859Z,16.97
2018-12-31T07:29:02.767Z,27.30
2018-12-31T07:31:31.527Z,20.43
2018-12-31T07:34:00.310Z,20.20
2018-12-31T07:36:29.611Z,20.27
2018-12-31T07:38:58.469Z,33.47
2018-12-31T07:41:27.396Z,22.40
2018-12-31T07:43:57.293Z,33.87
2018-12-31T07:46:26.049Z,26.50
2018-12-31T07:48:54.847Z,19.23
2018-12-31T07:51:23.833Z,28.57
2018-12-31T07:53:53.112Z,32.80
2018-12-31T07:56:21.890Z,34.77
2018-12-31T07:58:51.017Z,35.60
2018-12-31T08:01:19.772Z,31.60
2018-12-31T08:03:48.992Z,26.70
2018-12-31T08:06:17.794Z,30.20
2018-12-31T08:08:47.117Z,35.90
2018-12-31T08:11:16.005Z,28.17
2018-12-31T08:13:44.883Z,25.40
2018-12-31T08:16:13.780Z,27.47
2018-12-31T08:18:42.539Z,25.23
2018-12-31T08:21:11.634Z,32.47
2018-12-31T08:23:40.438Z,27.10
2018-12-31T08:26:09.380Z,27.73
2018-12-31T08:28:38.475Z,26.80
2018-12-31T08:31:07.739Z,20.87
2018-12-31T08:33:36.614Z,25.23
2018-12-31T08:36:05.555Z,31.13
2018-12-31T08:38:34.418Z,33.87
2018-12-31T08:41:03.508Z,24.60
2018-12-31T08:43:32.688Z,36.53
2018-12-31T08:46:01.478Z,38.83
2018-12-31T08:48:30.731Z,24.97
2018-12-31T08:50:59.879Z,32.00
2018-12-31T08:53:28.662Z,30.60
2018-12-31T08:55:57.776Z,40.03
2018-12-31T08:58:26.823Z,25.13
2018-12-31T09:00:55.616Z,22.73
2018-12-31T09:03:25.238Z,33.73
2018-12-31T09:06:13.277Z,27.57
2018-12-31T09:08:43.336Z,33.80
2018-12-31T09:11:13.252Z,23.93
2018-12-31T09:13:42.252Z,106.00
2018-12-31T09:16:11.110Z,42.20
2018-12-31T09:18:40.292Z,43.23
2018-12-31T09:21:09.118Z,34.70
2018-12-31T09:23:38.276Z,34.60
2018-12-31T09:26:07.200Z,37.33
2018-12-31T09:28:36.100Z,38.60
2018-12-31T09:31:05.068Z,33.33
2018-12-31T09:33:35.224Z,43.83
2018-12-31T09:36:04.075Z,32.77
2018-12-31T09:38:32.867Z,40.63
2018-12-31T09:41:01.714Z,45.60
2018-12-31T09:43:30.716Z,39.47
2018-12-31T09:45:59.535Z,70.17
2018-12-31T09:48:28.455Z,41.17
2018-12-31T09:50:57.215Z,34.97
2018-12-31T09:53:26.128Z,48.20
2018-12-31T09:55:55.024Z,54.63
2018-12-31T09:58:24.224Z,49.60
2018-12-31T10:00:53.110Z,37.97
2018-12-31T10:03:22.623Z,37.30
2018-12-31T10:05:51.636Z,31.67
2018-12-31T10:08:20.497Z,24.43
2018-12-31T10:10:49.657Z,35.77
2018-12-31T10:13:18.636Z,31.03
2018-12-31T10:15:47.932Z,36.00
2018-12-31T10:18:16.756Z,35.07
2018-12-31T10:20:46.086Z,32.70
2018-12-31T10:23:14.982Z,31.67
2018-12-31T10:25:43.735Z,32.67
2018-12-31T10:28:12.930Z,40.37
2018-12-31T10:30:41.861Z,38.30
2018-12-31T10:33:10.638Z,38.90
2018-12-31T10:35:39.775Z,26.67
2018-12-31T10:38:08.647Z,30.37
2018-12-31T10:40:37.575Z,36.00
2018-12-31T10:43:07.471Z,30.73
2018-12-31T10:45:36.402Z,32.10
2018-12-31T10:48:05.162Z,31.67
2018-12-31T10:50:34.441Z,24.93
2018-12-31T10:53:03.364Z,26.83
2018-12-31T10:55:32.636Z,25.50
2018-12-31T10:58:01.927Z,37.83
2018-12-31T11:00:30.971Z,33.37
2018-12-31T11:02:59.968Z,54.10
2018-12-31T11:05:28.896Z,53.00
2018-12-31T11:07:57.710Z,36.57
2018-12-31T11:10:26.608Z,39.17
2018-12-31T11:12:55.532Z,29.70
2018-12-31T11:15:24.649Z,37.53
2018-12-31T11:17:53.578Z,24.33
2018-12-31T11:20:22.383Z,24.67
2018-12-31T11:22:52.016Z,24.70
2018-12-31T11:25:21.392Z,34.17
2018-12-31T11:27:53.773Z,26.60
2018-12-31T11:30:22.655Z,36.73
2018-12-31T11:32:51.706Z,30.97
2018-12-31T11:35:20.537Z,45.43
2018-12-31T11:37:49.940Z,27.80
2018-12-31T11:40:18.781Z,44.67
2018-12-31T11:42:47.741Z,24.50
2018-12-31T11:45:16.847Z,23.27
2018-12-31T11:47:46.047Z,21.73
2018-12-31T11:50:15.053Z,21.17
2018-12-31T11:52:44.154Z,39.93
2018-12-31T11:55:13.042Z,28.60
2018-12-31T11:57:41.920Z,43.60
2018-12-31T12:00:11.196Z,23.97
2018-12-31T12:02:40.188Z,36.97
2018-12-31T12:05:09.248Z,32.93
2018-12-31T12:07:38.364Z,28.90
2018-12-31T12:10:07.291Z,30.43
2018-12-31T12:12:36.310Z,24.63
2018-12-31T12:15:05.422Z,28.00
2018-12-31T12:17:34.791Z,25.97
2018-12-31T12:20:03.894Z,27.00
2018-12-31T12:22:33.519Z,22.60
2018-12-31T12:25:02.656Z,30.40
2018-12-31T12:27:31.734Z,24.17
2018-12-31T12:30:00.669Z,33.07
2018-12-31T12:32:29.498Z,21.23
2018-12-31T12:34:58.712Z,31.03
2018-12-31T12:37:28.103Z,24.30
2018-12-31T12:39:56.961Z,21.07
2018-12-31T12:42:25.826Z,22.30
2018-12-31T12:44:54.650Z,20.17
2018-12-31T12:47:24.191Z,27.60
2018-12-31T12:49:53.099Z,21.43
2018-12-31T12:52:21.967Z,24.50
2018-12-31T12:54:50.834Z,35.80
2018-12-31T12:57:19.747Z,26.83
2018-12-31T12:59:48.716Z,30.60
2018-12-31T13:02:17.941Z,26.10
2018-12-31T13:04:46.833Z,22.07
2018-12-31T13:07:15.984Z,25.83
2018-12-31T13:09:44.789Z,21.60
2018-12-31T13:12:13.712Z,21.33
2018-12-31T13:14:43.909Z,28.40
2018-12-31T13:17:12.891Z,23.70
2018-12-31T13:19:42.403Z,62.90
2018-12-31T13:22:11.304Z,40.30
2018-12-31T13:24:40.543Z,28.67
2018-12-31T13:27:09.419Z,38.70
2018-12-31T13:29:40.363Z,21.93
2018-12-31T13:32:09.362Z,25.10
2018-12-31T13:34:39.003Z,21.97
2018-12-31T13:37:07.912Z,31.77
2018-12-31T13:39:37.151Z,34.77
2018-12-31T13:42:06.056Z,22.23
2018-12-31T13:44:34.806Z,28.83
2018-12-31T13:47:03.585Z,29.73
2018-12-31T13:49:33.340Z,25.57
2018-12-31T13:52:03.210Z,28.73
2018-12-31T13:54:32.036Z,27.53
2018-12-31T13:57:01.139Z,41.27
2018-12-31T13:59:30.384Z,26.87
2018-12-31T14:01:59.171Z,26.80
2018-12-31T14:04:28.019Z,26.37
2018-12-31T14:06:57.902Z,31.27
2018-12-31T14:09:27.037Z,25.73
2018-12-31T14:11:56.318Z,25.00
2018-12-31T14:14:25.232Z,24.43
2018-12-31T14:16:54.272Z,25.67
2018-12-31T14:19:23.052Z,28.63
2018-12-31T14:21:51.955Z,29.80
2018-12-31T14:24:21.015Z,36.73
2018-12-31T14:26:49.951Z,35.17
2018-12-31T14:29:18.835Z,24.27
2018-12-31T14:31:48.000Z,43.87
2018-12-31T14:34:16.960Z,27.43
2018-12-31T14:36:46.328Z,31.13
2018-12-31T14:39:15.525Z,37.10
2018-12-31T14:41:44.317Z,33.90
2018-12-31T14:44:14.816Z,36.40
2018-12-31T14:46:43.660Z,42.97
2018-12-31T14:49:12.828Z,42.07
2018-12-31T14:51:41.797Z,33.73
2018-12-31T14:54:10.723Z,27.93
2018-12-31T14:56:39.652Z,29.10
2018-12-31T14:59:08.930Z,37.50
2018-12-31T15:01:38.112Z,26.83
2018-12-31T15:04:07.335Z,37.13
2018-12-31T15:06:38.211Z,29.67
2018-12-31T15:09:07.435Z,27.97
2018-12-31T15:11:36.505Z,28.87
2018-12-31T15:14:05.550Z,24.17
2018-12-31T15:16:34.804Z,28.57
2018-12-31T15:19:04.068Z,30.63
2018-12-31T15:21:33.020Z,36.00
2018-12-31T15:24:01.948Z,27.83
2018-12-31T15:26:31.193Z,42.27
2018-12-31T15:29:00.417Z,35.60
2018-12-31T15:31:29.530Z,22.77
2018-12-31T15:33:58.465Z,26.43
2018-12-31T15:36:27.375Z,28.47
2018-12-31T15:38:56.632Z,36.97
2018-12-31T15:41:25.860Z,61.77
2018-12-31T15:43:55.031Z,59.33
2018-12-31T15:46:24.942Z,108.73
2018-12-31T15:48:53.928Z,49.97
2018-12-31T15:51:23.839Z,51.27
2018-12-31T15:53:52.590Z,41.33
2018-12-31T15:56:24.143Z,62.83
2018-12-31T15:58:53.113Z,41.07
2018-12-31T16:01:21.935Z,38.63
2018-12-31T16:03:50.807Z,51.47
2018-12-31T16:06:19.955Z,34.57
2018-12-31T16:08:49.051Z,42.67
2018-12-31T16:11:18.911Z,41.70
2018-12-31T16:13:48.257Z,38.73
2018-12-31T16:16:17.584Z,41.60
2018-12-31T16:18:46.564Z,41.83
2018-12-31T16:21:15.619Z,54.50
2018-12-31T16:23:44.455Z,54.87
2018-12-31T16:26:13.775Z,45.30
2018-12-31T16:28:43.207Z,43.17
2018-12-31T16:31:12.192Z,58.57
2018-12-31T16:33:41.367Z,57.80
2018-12-31T16:36:10.237Z,73.97
2018-12-31T16:38:39.534Z,54.10
2018-12-31T16:41:08.724Z,46.73
2018-12-31T16:43:38.000Z,56.40
2018-12-31T16:46:06.901Z,40.87
2018-12-31T16:48:36.076Z,50.93
2018-12-31T16:51:04.987Z,54.30
2018-12-31T16:53:33.867Z,45.07
2018-12-31T16:56:02.690Z,44.47
2018-12-31T16:58:31.755Z,41.80
2018-12-31T17:01:00.903Z,35.93
2018-12-31T17:03:30.023Z,47.10
2018-12-31T17:05:58.956Z,53.50
2018-12-31T17:08:27.847Z,43.90
2018-12-31T17:10:56.953Z,49.87
2018-12-31T17:13:25.871Z,48.50
2018-12-31T17:15:54.669Z,50.23
2018-12-31T17:18:23.541Z,52.33
2018-12-31T17:20:52.819Z,68.13
2018-12-31T17:23:21.993Z,52.97
2018-12-31T17:25:50.890Z,47.97
2018-12-31T17:28:19.766Z,39.40
2018-12-31T17:30:49.095Z,41.90
2018-12-31T17:33:18.015Z,52.67
2018-12-31T17:35:46.979Z,43.23
2018-12-31T17:38:16.258Z,43.50
2018-12-31T17:40:45.127Z,44.60
2018-12-31T17:43:14.345Z,38.00
2018-12-31T17:45:43.785Z,38.37
2018-12-31T17:48:12.815Z,58.50
2018-12-31T17:50:41.956Z,63.20
2018-12-31T17:53:10.895Z,61.30
2018-12-31T17:55:40.100Z,54.67
2018-12-31T17:58:08.996Z,38.83
2018-12-31T18:00:37.831Z,50.37
2018-12-31T18:03:07.031Z,48.33
2018-12-31T18:05:35.996Z,51.10
2018-12-31T18:08:05.215Z,46.77
2018-12-31T18:10:34.169Z,54.23
2018-12-31T18:13:03.027Z,53.00
2018-12-31T18:15:31.872Z,50.33
2018-12-31T18:18:00.700Z,49.53
2018-12-31T18:20:29.982Z,55.30
2018-12-31T18:22:58.819Z,56.30
2018-12-31T18:25:27.890Z,51.53
2018-12-31T18:27:56.778Z,42.03
2018-12-31T18:30:25.822Z,34.53
2018-12-31T18:32:55.059Z,34.80
2018-12-31T18:35:23.867Z,37.80
2018-12-31T18:37:52.652Z,41.70
2018-12-31T18:40:22.339Z,61.77
2018-12-31T18:42:51.414Z,44.80
2018-12-31T18:45:22.768Z,47.73
2018-12-31T18:47:51.863Z,42.50
2018-12-31T18:50:20.768Z,37.00
2018-12-31T18:52:50.211Z,50.83
2018-12-31T18:55:19.191Z,43.50
2018-12-31T18:57:48.700Z,45.13
2018-12-31T19:00:17.583Z,60.87
2018-12-31T19:02:46.764Z,57.17
2018-12-31T19:05:15.968Z,47.60
2018-12-31T19:07:44.851Z,53.30
2018-12-31T19:10:14.111Z,57.53
2018-12-31T19:12:43.012Z,46.47
2018-12-31T19:15:11.869Z,51.87
2018-12-31T19:17:40.766Z,50.07
2018-12-31T19:20:09.693Z,50.50
2018-12-31T19:22:38.538Z,46.80
2018-12-31T19:25:07.443Z,58.83
2018-12-31T19:27:36.339Z,88.70
2018-12-31T19:30:05.295Z,59.83
2018-12-31T19:32:34.103Z,40.67
2018-12-31T19:35:02.884Z,41.67
2018-12-31T19:37:32.096Z,49.00
2018-12-31T19:40:00.942Z,45.20
2018-12-31T19:42:29.788Z,43.90
2018-12-31T19:44:58.680Z,44.93
2018-12-31T19:47:27.597Z,41.67
2018-12-31T19:49:58.070Z,40.40
2018-12-31T19:52:26.987Z,41.57
2018-12-31T19:54:58.528Z,19.07
2018-12-31T19:57:26.402Z,40.03
2018-12-31T19:59:55.364Z,34.87
2018-12-31T20:02:24.192Z,40.30
2018-12-31T20:04:53.095Z,34.87
2018-12-31T20:07:22.122Z,36.97
2018-12-31T20:09:51.850Z,33.60
2018-12-31T20:12:20.599Z,38.10
2018-12-31T20:14:50.203Z,34.33
2018-12-31T20:17:18.950Z,30.13
2018-12-31T20:19:48.231Z,44.63
2018-12-31T20:22:17.045Z,42.20
2018-12-31T20:24:45.936Z,30.47
2018-12-31T20:27:15.334Z,35.77
2018-12-31T20:29:44.455Z,37.30
2018-12-31T20:32:13.565Z,33.53
2018-12-31T20:34:42.772Z,37.13
2018-12-31T20:37:11.653Z,33.60
2018-12-31T20:39:40.570Z,35.53
2018-12-31T20:42:09.392Z,41.53
2018-12-31T20:44:38.319Z,28.77
2018-12-31T20:47:07.571Z,37.67
2018-12-31T20:49:36.480Z,40.57
2018-12-31T20:52:05.435Z,32.87
2018-12-31T20:54:34.278Z,34.53
2018-12-31T20:57:03.304Z,43.43
2018-12-31T20:59:32.159Z,43.53
2018-12-31T21:02:01.323Z,42.50
2018-12-31T21:04:30.125Z,38.10
2018-12-31T21:06:59.003Z,71.97
2018-12-31T21:09:28.955Z,54.30
2018-12-31T21:12:02.299Z,46.33
2018-12-31T21:14:31.751Z,52.67
2018-12-31T21:17:00.839Z,62.87
2018-12-31T21:19:29.919Z,61.60
2018-12-31T21:21:59.118Z,59.77
2018-12-31T21:24:28.069Z,52.27
2018-12-31T21:26:57.440Z,50.77
2018-12-31T21:29:27.446Z,57.43
2018-12-31T21:31:56.442Z,45.57
2018-12-31T21:34:25.222Z,49.27
2018-12-31T21:36:54.517Z,66.77
2018-12-31T21:39:23.465Z,62.97
2018-12-31T21:41:52.642Z,61.47
2018-12-31T21:44:21.450Z,54.07
2018-12-31T21:46:50.592Z,79.73
2018-12-31T21:49:20.082Z,71.37
2018-12-31T21:51:49.563Z,68.03
2018-12-31T21:54:18.423Z,51.47
2018-12-31T21:56:47.357Z,55.40
2018-12-31T21:59:17.318Z,61.63
2018-12-31T22:01:46.624Z,58.97
2018-12-31T22:04:15.683Z,40.73
2018-12-31T22:06:44.900Z,26.20
2018-12-31T22:09:14.808Z,37.50
2018-12-31T22:11:44.057Z,33.70
2018-12-31T22:14:12.999Z,23.03
2018-12-31T22:16:41.822Z,22.20
2018-12-31T22:19:10.786Z,17.40
2018-12-31T22:21:39.617Z,27.40
2018-12-31T22:24:08.820Z,25.13
2018-12-31T22:26:37.706Z,19.93
2018-12-31T22:29:06.618Z,30.53
2018-12-31T22:31:35.856Z,30.30
2018-12-31T22:34:05.007Z,24.93
2018-12-31T22:36:34.232Z,25.43
2018-12-31T22:39:03.768Z,21.40
2018-12-31T22:41:33.170Z,26.23
2018-12-31T22:44:02.154Z,32.30
2018-12-31T22:46:30.955Z,29.27
2018-12-31T22:49:00.079Z,30.50
2018-12-31T22:51:28.996Z,42.37
2018-12-31T22:53:58.101Z,64.93
2018-12-31T22:56:27.000Z,39.37
2018-12-31T22:58:55.853Z,39.90
2018-12-31T23:01:25.103Z,37.53
2018-12-31T23:03:54.275Z,39.80
2018-12-31T23:06:23.154Z,40.63
2018-12-31T23:08:52.082Z,190.93
2018-12-31T23:11:21.369Z,144.13
2018-12-31T23:13:50.593Z,202.20
2018-12-31T23:16:23.130Z,144.33
2018-12-31T23:18:52.161Z,185.90
2018-12-31T23:21:21.672Z,281.17
2018-12-31T23:23:50.905Z,382.20
2018-12-31T23:26:20.132Z,372.37
2018-12-31T23:28:52.633Z,419.77
2018-12-31T23:31:19.999Z,451.00
2018-12-31T23:33:48.828Z,391.67
2018-12-31T23:36:17.970Z,501.80
2018-12-31T23:38:47.304Z,427.87
2018-12-31T23:41:16.212Z,391.83
2018-12-31T23:43:45.367Z,294.40
2018-12-31T23:46:14.251Z,325.27
2018-12-31T23:48:43.298Z,249.07
2018-12-31T23:51:12.201Z,152.43
2018-12-31T23:53:42.191Z,141.17
2018-12-31T23:56:12.296Z,95.07
2018-12-31T23:58:41.089Z,67.87
